Time;durP1;ratioP1;P1;durP2;ratioP2;P2;SDS_P1;SDS_P2;PMS_P1;PMS_P2;Temp;Humidity;BMP_temperature;BMP_pressure;BME280_temperature;BME280_humidity;BME280_pressure;Samples;Min_cycle;Max_cycle;Signal;HPM_P1;HPM_P2
2024/02/25 00:00:14;;;;;;;0.55;0.30;;;9.80;70.70;;;;;;2611652;52;20941;-66
2024/02/25 00:02:41;;;;;;;1.23;0.40;;;9.80;70.40;;;;;;2362897;54;20934;-66
2024/02/25 00:05:08;;;;;;;0.95;0.40;;;9.80;70.60;;;;;;2363169;54;21419;-66
2024/02/25 00:07:37;;;;;;;2.00;0.40;;;9.80;70.50;;;;;;2613500;52;20958;-66
2024/02/25 00:10:04;;;;;;;1.90;0.40;;;9.80;70.50;;;;;;2363098;54;21253;-65
2024/02/25 00:12:30;;;;;;;0.85;0.30;;;9.80;70.40;;;;;;2363031;54;21427;-67
2024/02/25 00:14:57;;;;;;;0.93;0.30;;;9.80;70.40;;;;;;2601125;52;20983;-66
2024/02/25 00:17:23;;;;;;;0.65;0.30;;;9.80;70.40;;;;;;2362846;54;21674;-66
2024/02/25 00:19:49;;;;;;;1.67;0.50;;;9.80;70.30;;;;;;2363387;54;21006;-66
2024/02/25 00:22:16;;;;;;;1.33;0.43;;;9.90;70.50;;;;;;2363189;54;20954;-66
2024/02/25 00:24:43;;;;;;;1.23;0.40;;;9.90;70.40;;;;;;2363089;54;21001;-65
2024/02/25 00:27:09;;;;;;;1.27;0.40;;;9.90;70.30;;;;;;2362840;54;21178;-66
2024/02/25 00:29:35;;;;;;;0.60;0.30;;;9.90;70.30;;;;;;2614236;52;20927;-66
2024/02/25 00:32:02;;;;;;;1.00;0.37;;;9.90;70.20;;;;;;2614664;52;20946;-66
2024/02/25 00:34:32;;;;;;;0.73;0.30;;;9.90;70.30;;;;;;2613903;52;20942;-66
2024/02/25 00:36:59;;;;;;;1.08;0.50;;;9.90;70.10;;;;;;2364067;54;20946;-66
2024/02/25 00:39:26;;;;;;;0.73;0.30;;;9.90;70.30;;;;;;2362986;54;21237;-66
2024/02/25 00:41:55;;;;;;;1.17;0.47;;;9.90;70.30;;;;;;2363696;54;20982;-66
2024/02/25 00:44:22;;;;;;;0.80;0.37;;;9.90;70.30;;;;;;2362843;54;20981;-66
2024/02/25 00:46:48;;;;;;;0.65;0.30;;;10.00;69.20;;;;;;2354604;54;21264;-65
2024/02/25 00:49:14;;;;;;;1.58;0.57;;;10.00;69.20;;;;;;2613843;52;21412;-66
2024/02/25 00:51:41;;;;;;;1.62;0.43;;;10.00;69.10;;;;;;2363190;54;21219;-65
2024/02/25 00:54:07;;;;;;;0.85;0.40;;;10.00;69.10;;;;;;2614717;52;20926;-66
2024/02/25 00:56:33;;;;;;;0.50;0.30;;;10.00;69.20;;;;;;2364152;54;21010;-65
2024/02/25 00:59:00;;;;;;;0.47;0.32;;;10.10;69.20;;;;;;2355797;54;21736;-65
2024/02/25 01:01:26;;;;;;;1.55;0.68;;;10.00;69.10;;;;;;2363580;54;20954;-65
2024/02/25 01:03:52;;;;;;;0.30;0.22;;;10.00;69.00;;;;;;2613936;52;20958;-66
2024/02/25 01:06:19;;;;;;;1.27;0.40;;;10.10;69.10;;;;;;2614022;52;20930;-66
2024/02/25 01:08:45;;;;;;;1.48;0.43;;;10.10;69.10;;;;;;2363096;54;21345;-67
2024/02/25 01:11:15;;;;;;;1.50;0.40;;;10.10;69.00;;;;;;2614141;52;20946;-66
2024/02/25 01:13:41;;;;;;;0.73;0.40;;;10.00;68.60;;;;;;2363432;54;21769;-66
2024/02/25 01:16:10;;;;;;;1.05;0.40;;;10.10;68.90;;;;;;2614290;52;20942;-66
2024/02/25 01:18:36;;;;;;;0.82;0.30;;;10.10;68.80;;;;;;2343080;54;21137;-65
2024/02/25 01:21:04;;;;;;;0.95;0.30;;;10.10;68.80;;;;;;2321007;54;21005;-66
2024/02/25 01:23:31;;;;;;;1.10;0.40;;;10.10;68.80;;;;;;2590899;53;21028;-67
2024/02/25 01:25:57;;;;;;;0.55;0.30;;;10.10;68.70;;;;;;2335827;54;20971;-66
2024/02/25 01:28:23;;;;;;;0.57;0.30;;;10.10;68.70;;;;;;2349933;54;20938;-66
2024/02/25 01:30:50;;;;;;;0.73;0.40;;;10.10;68.70;;;;;;2362915;54;21025;-66
2024/02/25 01:33:16;;;;;;;1.02;0.50;;;10.10;68.70;;;;;;2362543;54;20990;-65
2024/02/25 01:35:45;;;;;;;1.05;0.50;;;10.20;68.80;;;;;;2613602;52;20914;-65
2024/02/25 01:38:12;;;;;;;2.42;0.45;;;10.20;68.60;;;;;;2362561;54;20993;-66
2024/02/25 01:40:38;;;;;;;1.08;0.50;;;10.20;68.90;;;;;;2357542;54;22288;-66
2024/02/25 01:43:09;;;;;;;1.35;0.40;;;10.20;68.90;;;;;;2363437;54;20958;-66
2024/02/25 01:45:35;;;;;;;1.50;0.40;;;10.20;68.90;;;;;;2359973;54;21383;-66
2024/02/25 01:48:03;;;;;;;1.10;0.40;;;10.20;68.90;;;;;;2362911;54;20946;-67
2024/02/25 01:50:29;;;;;;;1.92;0.57;;;10.20;68.80;;;;;;2598451;52;20955;-66
2024/02/25 01:52:55;;;;;;;1.08;0.40;;;10.20;68.80;;;;;;2326268;54;21471;-66
2024/02/25 01:55:23;;;;;;;1.58;0.52;;;10.20;68.70;;;;;;2362238;54;20978;-67
2024/02/25 01:57:50;;;;;;;0.68;0.40;;;10.20;68.70;;;;;;2613847;52;21022;-64
2024/02/25 02:00:17;;;;;;;3.12;0.65;;;10.20;68.60;;;;;;2611623;52;20926;-67
2024/02/25 02:02:44;;;;;;;1.48;0.65;;;10.20;68.70;;;;;;2362427;54;21289;-66
2024/02/25 02:05:10;;;;;;;1.00;0.40;;;10.20;68.60;;;;;;2362773;54;20943;-66
2024/02/25 02:07:42;;;;;;;1.42;0.50;;;10.20;68.60;;;;;;2613542;52;21416;-66
2024/02/25 02:10:08;;;;;;;1.40;0.50;;;10.20;68.60;;;;;;2614288;52;20986;-66
2024/02/25 02:12:44;;;;;;;1.10;0.37;;;10.30;68.70;;;;;;2362645;54;21004;-65
2024/02/25 02:15:11;;;;;;;0.80;0.40;;;10.30;68.10;;;;;;2331300;54;20932;-66
2024/02/25 02:17:41;;;;;;;1.95;0.70;;;10.20;68.60;;;;;;2354887;54;20974;-66
2024/02/25 02:20:11;;;;;;;1.05;0.40;;;10.20;68.40;;;;;;2363015;54;20962;-67
2024/02/25 02:22:38;;;;;;;1.52;0.43;;;10.30;68.70;;;;;;2363228;54;21282;-67
2024/02/25 02:25:05;;;;;;;1.83;0.60;;;10.30;68.70;;;;;;2614292;52;20931;-66
2024/02/25 02:27:35;;;;;;;1.73;0.57;;;10.30;68.60;;;;;;2611522;52;20978;-67
2024/02/25 02:30:03;;;;;;;0.40;0.30;;;10.30;68.60;;;;;;2362633;54;21815;-66
2024/02/25 02:32:29;;;;;;;0.47;0.40;;;10.30;68.70;;;;;;2362702;54;20954;-66
2024/02/25 02:34:55;;;;;;;1.40;0.50;;;10.30;68.70;;;;;;2362175;54;20978;-66
2024/02/25 02:37:22;;;;;;;1.15;0.50;;;10.30;68.70;;;;;;2613660;52;21022;-66
2024/02/25 02:39:51;;;;;;;1.23;0.40;;;10.30;68.70;;;;;;2614191;52;20986;-65
2024/02/25 02:42:18;;;;;;;0.88;0.40;;;10.30;68.40;;;;;;2363119;54;20946;-65
2024/02/25 02:44:48;;;;;;;1.23;0.47;;;10.30;68.60;;;;;;2362665;54;20974;-66
2024/02/25 02:47:15;;;;;;;1.23;0.40;;;10.30;68.50;;;;;;2363000;54;20962;-66
2024/02/25 02:49:41;;;;;;;0.75;0.35;;;10.30;68.50;;;;;;2362833;54;20993;-66
2024/02/25 02:52:07;;;;;;;1.45;0.40;;;10.30;68.50;;;;;;2363323;54;21007;-65
2024/02/25 02:54:34;;;;;;;1.05;0.40;;;10.30;68.40;;;;;;2613586;52;20906;-66
2024/02/25 02:57:01;;;;;;;1.48;0.60;;;10.30;68.50;;;;;;2363430;54;21009;-67
2024/02/25 02:59:28;;;;;;;0.90;0.40;;;10.30;68.60;;;;;;2362454;54;20958;-66
2024/02/25 03:01:54;;;;;;;1.15;0.40;;;10.30;68.50;;;;;;2614479;52;21736;-66
2024/02/25 03:04:20;;;;;;;1.58;0.50;;;10.30;68.60;;;;;;2362888;54;20930;-66
2024/02/25 03:06:48;;;;;;;1.45;0.55;;;10.40;68.60;;;;;;2362979;54;20938;-66
2024/02/25 03:09:15;;;;;;;0.93;0.40;;;10.40;68.50;;;;;;2613764;52;21089;-66
2024/02/25 03:11:42;;;;;;;1.73;0.60;;;10.40;68.50;;;;;;2613588;52;20974;-66
2024/02/25 03:14:09;;;;;;;1.62;0.50;;;10.40;68.40;;;;;;2314601;54;21261;-66
2024/02/25 03:16:38;;;;;;;1.50;0.40;;;10.40;68.50;;;;;;2362252;54;20942;-65
2024/02/25 03:19:04;;;;;;;0.30;0.30;;;10.40;68.40;;;;;;2363372;54;21431;-67
2024/02/25 03:21:30;;;;;;;0.85;0.40;;;10.40;68.40;;;;;;2603061;52;20958;-67
2024/02/25 03:23:57;;;;;;;2.00;0.60;;;10.40;68.40;;;;;;2362042;54;21013;-66
2024/02/25 03:26:23;;;;;;;1.33;0.40;;;10.40;68.40;;;;;;2353934;54;20951;-66
2024/02/25 03:28:50;;;;;;;1.45;0.50;;;10.40;68.40;;;;;;2614152;52;21025;-66
2024/02/25 03:31:16;;;;;;;1.83;0.60;;;10.50;68.40;;;;;;2363057;54;20952;-68
2024/02/25 03:33:44;;;;;;;1.35;0.50;;;10.50;68.20;;;;;;2362764;54;21017;-65
2024/02/25 03:36:10;;;;;;;0.65;0.40;;;10.50;68.20;;;;;;2363604;54;21748;-67
2024/02/25 03:38:41;;;;;;;0.75;0.35;;;10.50;68.20;;;;;;2329106;54;20980;-66
2024/02/25 03:41:08;;;;;;;1.30;0.43;;;10.50;68.00;;;;;;2353441;54;21357;-65
2024/02/25 03:43:34;;;;;;;1.15;0.50;;;10.50;68.00;;;;;;2357497;54;20942;-65
2024/02/25 03:46:01;;;;;;;0.98;0.40;;;10.50;68.00;;;;;;2348588;53;20976;-65
2024/02/25 03:48:27;;;;;;;1.27;0.57;;;10.50;67.80;;;;;;2358061;54;20946;-65
2024/02/25 03:50:53;;;;;;;2.22;0.60;;;10.50;67.60;;;;;;2608819;53;21542;-66
2024/02/25 03:53:20;;;;;;;1.48;0.50;;;10.50;67.60;;;;;;2357637;54;21459;-66
2024/02/25 03:55:46;;;;;;;2.28;0.65;;;10.40;68.40;;;;;;2358226;54;20970;-66
2024/02/25 03:58:13;;;;;;;1.08;0.50;;;10.40;67.80;;;;;;2608885;53;21797;-67
2024/02/25 04:00:39;;;;;;;0.95;0.50;;;10.40;67.80;;;;;;2575987;53;20972;-65
2024/02/25 04:03:06;;;;;;;2.40;0.55;;;10.40;67.90;;;;;;2608182;53;21694;-66
2024/02/25 04:05:32;;;;;;;1.08;0.50;;;10.40;67.60;;;;;;2358669;54;21238;-66
2024/02/25 04:07:59;;;;;;;2.15;0.90;;;10.40;67.60;;;;;;2359136;54;21447;-67
2024/02/25 04:10:26;;;;;;;2.28;0.40;;;10.40;67.60;;;;;;2574858;53;20951;-67
2024/02/25 04:12:52;;;;;;;1.73;0.60;;;10.40;67.70;;;;;;2358513;54;20934;-66
2024/02/25 04:15:18;;;;;;;2.67;0.70;;;10.40;67.80;;;;;;2358970;54;20942;-66
2024/02/25 04:17:45;;;;;;;1.55;0.50;;;10.40;67.90;;;;;;2358448;54;20966;-66
2024/02/25 04:20:11;;;;;;;2.45;0.60;;;10.40;67.90;;;;;;2359437;54;20970;-66
2024/02/25 04:22:37;;;;;;;1.73;0.60;;;10.40;67.90;;;;;;2608829;53;20938;-66
2024/02/25 04:25:04;;;;;;;1.33;0.50;;;10.40;67.90;;;;;;2358824;54;21451;-66
2024/02/25 04:27:34;;;;;;;1.27;0.50;;;10.40;67.80;;;;;;2358305;54;21233;-67
2024/02/25 04:30:01;;;;;;;0.82;0.40;;;10.40;67.70;;;;;;2609313;53;20977;-65
2024/02/25 04:32:27;;;;;;;1.20;0.45;;;10.40;68.00;;;;;;2336432;54;21040;-66
2024/02/25 04:34:55;;;;;;;1.23;0.40;;;10.40;68.00;;;;;;2343068;53;20962;-67
2024/02/25 04:37:21;;;;;;;1.55;0.60;;;10.40;68.00;;;;;;2349949;53;21021;-66
2024/02/25 04:39:48;;;;;;;2.22;0.70;;;10.40;67.90;;;;;;2365979;53;21472;-67
2024/02/25 04:42:14;;;;;;;2.60;0.80;;;10.40;67.90;;;;;;2368338;53;20934;-65
2024/02/25 04:44:41;;;;;;;1.62;0.60;;;10.40;67.90;;;;;;2368138;53;20978;-65
2024/02/25 04:47:07;;;;;;;1.67;0.68;;;10.40;67.90;;;;;;2367959;53;21044;-67
2024/02/25 04:49:34;;;;;;;1.58;0.60;;;10.40;67.90;;;;;;2368190;53;20958;-66
2024/02/25 04:52:00;;;;;;;1.40;0.60;;;10.50;67.90;;;;;;2591589;52;20937;-67
2024/02/25 04:54:26;;;;;;;1.30;0.55;;;10.40;67.80;;;;;;2364199;53;21429;-67
2024/02/25 04:56:54;;;;;;;1.83;0.60;;;10.50;67.70;;;;;;2621104;52;20914;-66
2024/02/25 04:59:20;;;;;;;1.75;0.68;;;10.50;67.80;;;;;;2363237;53;21565;-65
2024/02/25 05:01:47;;;;;;;1.25;0.57;;;10.50;67.90;;;;;;2351407;53;20940;-67
2024/02/25 05:04:13;;;;;;;1.95;0.75;;;10.50;68.00;;;;;;2361048;53;20938;-67
2024/02/25 05:06:39;;;;;;;1.45;0.50;;;10.50;68.00;;;;;;2368211;53;21174;-67
2024/02/25 05:09:09;;;;;;;1.95;0.80;;;10.50;67.90;;;;;;2368930;53;21753;-66
2024/02/25 05:11:36;;;;;;;1.92;0.70;;;10.50;68.00;;;;;;2355167;53;20964;-67
2024/02/25 05:14:03;;;;;;;1.52;0.60;;;10.50;67.90;;;;;;2604538;52;21170;-66
2024/02/25 05:16:32;;;;;;;1.52;0.55;;;10.50;67.90;;;;;;2590242;52;21352;-67
2024/02/25 05:18:58;;;;;;;2.42;0.98;;;10.50;67.80;;;;;;2368339;53;21013;-67
2024/02/25 05:21:25;;;;;;;2.10;0.80;;;10.50;67.80;;;;;;2351026;53;20947;-67
2024/02/25 05:23:51;;;;;;;2.00;0.73;;;10.50;67.70;;;;;;2362258;53;20945;-67
2024/02/25 05:26:18;;;;;;;2.92;0.80;;;10.50;67.80;;;;;;2368462;53;20938;-66
2024/02/25 05:28:44;;;;;;;2.40;0.80;;;10.50;67.90;;;;;;2367549;53;21440;-67
2024/02/25 05:31:14;;;;;;;2.40;0.75;;;10.50;67.90;;;;;;2367828;53;20969;-66
2024/02/25 05:33:40;;;;;;;1.95;0.90;;;10.50;67.60;;;;;;2367716;53;21074;-67
2024/02/25 05:36:08;;;;;;;2.42;0.80;;;10.50;67.60;;;;;;2368734;53;21781;-67
2024/02/25 05:38:34;;;;;;;1.70;0.70;;;10.50;67.50;;;;;;2368742;53;21009;-66
2024/02/25 05:41:02;;;;;;;1.70;0.68;;;10.50;67.70;;;;;;2368717;53;21229;-67
2024/02/25 05:43:29;;;;;;;1.60;0.60;;;10.50;67.90;;;;;;2344539;53;20931;-67
2024/02/25 05:45:56;;;;;;;2.03;0.65;;;10.50;68.00;;;;;;2368482;53;20962;-67
2024/02/25 05:48:22;;;;;;;1.65;0.52;;;10.50;68.00;;;;;;2368209;53;21171;-66
2024/02/25 05:50:49;;;;;;;2.83;0.60;;;10.50;68.00;;;;;;2352322;53;20939;-67
2024/02/25 05:53:15;;;;;;;1.62;0.60;;;10.40;67.70;;;;;;2360372;53;20985;-66
2024/02/25 05:55:41;;;;;;;1.65;0.70;;;10.40;67.80;;;;;;2367935;53;21432;-66
2024/02/25 05:58:08;;;;;;;2.58;0.80;;;10.40;67.80;;;;;;2620562;52;20934;-67
2024/02/25 06:00:34;;;;;;;1.45;0.60;;;10.40;67.90;;;;;;2619862;52;20942;-66
2024/02/25 06:03:00;;;;;;;1.45;0.52;;;10.40;67.90;;;;;;2357287;53;20955;-65
2024/02/25 06:05:30;;;;;;;1.90;0.62;;;10.40;67.90;;;;;;2355600;53;20930;-67
2024/02/25 06:08:00;;;;;;;1.58;0.62;;;10.40;67.80;;;;;;2368338;53;21005;-67
2024/02/25 06:10:26;;;;;;;1.80;0.62;;;10.40;68.50;;;;;;2368341;53;21284;-66
2024/02/25 06:12:55;;;;;;;1.87;0.77;;;10.30;68.10;;;;;;2367422;53;20934;-67
2024/02/25 06:15:21;;;;;;;1.50;0.50;;;10.30;67.80;;;;;;2368221;53;20989;-66
2024/02/25 06:17:48;;;;;;;1.73;0.60;;;10.30;67.80;;;;;;2367614;53;20949;-66
2024/02/25 06:20:15;;;;;;;1.58;0.60;;;10.10;67.70;;;;;;2345165;53;21020;-66
2024/02/25 06:22:42;;;;;;;1.52;0.40;;;10.20;67.90;;;;;;2620436;52;20985;-66
2024/02/25 06:25:09;;;;;;;1.48;0.47;;;10.20;67.90;;;;;;2344310;53;21060;-66
2024/02/25 06:27:36;;;;;;;2.33;0.60;;;10.20;68.10;;;;;;2367905;53;20929;-66
2024/02/25 06:30:04;;;;;;;1.48;0.60;;;10.20;68.20;;;;;;2368172;53;21022;-65
2024/02/25 06:32:31;;;;;;;1.23;0.45;;;10.20;68.20;;;;;;2368236;53;20918;-66
2024/02/25 06:35:00;;;;;;;0.70;0.40;;;10.10;68.90;;;;;;2345785;53;21192;-67
2024/02/25 06:37:27;;;;;;;1.25;0.50;;;10.10;68.20;;;;;;2368531;53;21022;-66
2024/02/25 06:39:53;;;;;;;0.73;0.40;;;10.10;68.30;;;;;;2368010;53;21762;-67
2024/02/25 06:42:20;;;;;;;0.50;0.30;;;10.10;68.50;;;;;;2620923;52;21001;-66
2024/02/25 06:44:46;;;;;;;0.60;0.30;;;10.10;68.50;;;;;;2368140;53;20958;-66
2024/02/25 06:47:13;;;;;;;1.67;0.50;;;10.10;68.80;;;;;;2621163;52;20981;-67
2024/02/25 06:49:42;;;;;;;1.00;0.50;;;10.10;68.70;;;;;;2620228;52;21210;-66
2024/02/25 06:52:09;;;;;;;1.20;0.47;;;10.10;68.50;;;;;;2368612;53;20988;-66
2024/02/25 06:54:35;;;;;;;1.55;0.60;;;10.00;68.60;;;;;;2620411;52;20934;-67
2024/02/25 06:57:02;;;;;;;1.33;0.65;;;10.00;68.70;;;;;;2351254;53;20959;-67
2024/02/25 06:59:33;;;;;;;0.70;0.45;;;10.00;68.90;;;;;;2345146;54;21367;-66
2024/02/25 07:02:01;;;;;;;0.82;0.40;;;10.00;69.00;;;;;;2362259;53;20922;-67
2024/02/25 07:04:27;;;;;;;0.80;0.40;;;10.00;69.00;;;;;;2368862;53;20973;-67
2024/02/25 07:06:54;;;;;;;2.17;0.60;;;10.00;69.10;;;;;;2368162;53;20926;-67
2024/02/25 07:09:20;;;;;;;0.80;0.40;;;10.00;69.10;;;;;;2368037;53;20975;-66
2024/02/25 07:11:49;;;;;;;1.30;0.70;;;10.00;69.10;;;;;;2368124;53;20966;-66
2024/02/25 07:14:16;;;;;;;0.93;0.30;;;10.00;69.10;;;;;;2368313;53;20926;-66
2024/02/25 07:16:43;;;;;;;1.77;0.50;;;10.00;69.20;;;;;;2620016;52;20993;-66
2024/02/25 07:19:09;;;;;;;1.00;0.50;;;10.00;69.20;;;;;;2368152;53;20934;-67
2024/02/25 07:21:35;;;;;;;0.82;0.40;;;10.00;69.20;;;;;;2367904;53;20953;-67
2024/02/25 07:24:02;;;;;;;2.33;0.60;;;10.00;69.40;;;;;;2620950;52;21427;-66
2024/02/25 07:26:28;;;;;;;1.45;0.60;;;10.00;69.40;;;;;;2368641;53;20922;-66
2024/02/25 07:28:57;;;;;;;1.73;0.60;;;10.00;69.40;;;;;;2620404;52;21451;-66
2024/02/25 07:31:24;;;;;;;2.03;0.55;;;10.00;69.40;;;;;;2368241;53;21260;-65
2024/02/25 07:33:50;;;;;;;1.98;0.60;;;10.00;69.50;;;;;;2368494;53;21033;-66
2024/02/25 07:36:17;;;;;;;1.48;0.40;;;10.00;69.60;;;;;;2356941;53;21404;-67
2024/02/25 07:38:43;;;;;;;1.50;0.50;;;10.00;69.60;;;;;;2350487;53;21008;-67
2024/02/25 07:41:10;;;;;;;0.98;0.40;;;10.10;69.80;;;;;;2613502;52;21598;-67
2024/02/25 07:43:38;;;;;;;5.15;0.70;;;10.10;69.90;;;;;;2368425;53;20993;-66
2024/02/25 07:46:04;;;;;;;1.02;0.55;;;10.10;70.00;;;;;;2368762;53;21046;-66
2024/02/25 07:48:31;;;;;;;1.48;0.60;;;10.10;69.90;;;;;;2368753;53;21383;-67
2024/02/25 07:50:57;;;;;;;2.10;0.70;;;10.10;69.90;;;;;;2368232;53;21758;-66
2024/02/25 07:53:24;;;;;;;1.20;0.50;;;10.20;70.90;;;;;;2368867;53;21817;-67
2024/02/25 07:55:50;;;;;;;1.30;0.50;;;10.20;70.20;;;;;;2367575;53;20962;-66
2024/02/25 07:58:17;;;;;;;1.62;0.70;;;10.20;70.30;;;;;;2368084;53;21045;-66
2024/02/25 08:00:43;;;;;;;1.20;0.50;;;10.30;70.40;;;;;;2619835;52;20935;-66
2024/02/25 08:03:09;;;;;;;2.05;0.60;;;10.30;70.50;;;;;;2621232;52;20922;-66
2024/02/25 08:05:37;;;;;;;1.10;0.40;;;10.30;70.50;;;;;;2368467;53;21308;-66
2024/02/25 08:08:03;;;;;;;1.12;0.50;;;10.40;70.60;;;;;;2368523;53;21006;-66
2024/02/25 08:10:31;;;;;;;1.65;0.50;;;10.40;70.70;;;;;;2368634;53;21030;-65
2024/02/25 08:12:59;;;;;;;1.55;0.60;;;10.50;70.90;;;;;;2367805;53;20934;-66
2024/02/25 08:15:26;;;;;;;1.65;0.68;;;10.50;71.00;;;;;;2620506;52;21013;-66
2024/02/25 08:17:52;;;;;;;1.25;0.50;;;10.60;70.90;;;;;;2368917;53;20937;-66
2024/02/25 08:20:18;;;;;;;1.52;0.68;;;10.60;70.90;;;;;;2565715;53;20964;-66
2024/02/25 08:22:45;;;;;;;1.90;0.52;;;10.70;71.00;;;;;;2614036;52;20938;-66
2024/02/25 08:25:13;;;;;;;0.85;0.43;;;10.80;71.00;;;;;;2368172;53;21400;-67
2024/02/25 08:27:39;;;;;;;0.90;0.43;;;10.80;70.90;;;;;;2367803;53;21831;-65
2024/02/25 08:30:06;;;;;;;1.60;0.50;;;10.80;70.90;;;;;;2620015;52;21206;-67
2024/02/25 08:32:32;;;;;;;1.52;0.55;;;10.90;71.00;;;;;;2368093;53;20926;-66
2024/02/25 08:34:59;;;;;;;1.35;0.50;;;10.90;70.90;;;;;;2620475;52;21345;-66
2024/02/25 08:37:26;;;;;;;1.70;0.60;;;11.00;71.00;;;;;;2620781;52;21795;-66
2024/02/25 08:39:52;;;;;;;1.25;0.50;;;11.00;71.00;;;;;;2619846;52;20922;-66
2024/02/25 08:42:19;;;;;;;1.42;0.43;;;11.10;71.00;;;;;;2368081;53;22315;-66
2024/02/25 08:44:46;;;;;;;1.83;0.50;;;11.20;71.10;;;;;;2366683;53;20930;-67
2024/02/25 08:47:15;;;;;;;1.25;0.47;;;11.20;71.10;;;;;;2368406;53;20970;-66
2024/02/25 08:49:42;;;;;;;1.42;0.45;;;11.20;71.00;;;;;;2368071;53;20954;-65
2024/02/25 08:52:08;;;;;;;1.75;0.40;;;11.30;71.30;;;;;;2620796;52;20926;-67
2024/02/25 08:54:38;;;;;;;1.52;0.50;;;11.40;71.40;;;;;;2619730;52;20931;-67
2024/02/25 08:57:07;;;;;;;1.65;0.50;;;11.40;71.20;;;;;;2582849;52;20946;-66
2024/02/25 08:59:33;;;;;;;1.90;0.60;;;11.50;71.50;;;;;;2620270;52;20913;-66
2024/02/25 09:02:00;;;;;;;1.62;0.40;;;11.60;71.80;;;;;;2368218;53;21376;-67
2024/02/25 09:04:29;;;;;;;1.77;0.80;;;11.60;72.10;;;;;;2368816;53;20990;-65
2024/02/25 09:06:59;;;;;;;1.50;0.57;;;11.70;72.20;;;;;;2620648;52;20981;-66
2024/02/25 09:09:27;;;;;;;2.57;0.60;;;11.80;72.30;;;;;;2368807;53;20938;-65
2024/02/25 09:11:56;;;;;;;1.67;0.55;;;11.90;72.30;;;;;;2368208;53;20946;-65
2024/02/25 09:14:22;;;;;;;1.45;0.60;;;12.00;72.40;;;;;;2367675;53;20930;-67
2024/02/25 09:16:49;;;;;;;1.40;0.50;;;12.10;72.40;;;;;;2620105;52;20985;-66
2024/02/25 09:19:15;;;;;;;1.70;0.57;;;12.20;72.60;;;;;;2620602;52;20922;-67
2024/02/25 09:21:41;;;;;;;2.47;0.57;;;12.30;72.90;;;;;;2368349;53;21420;-68
2024/02/25 09:24:10;;;;;;;2.00;0.52;;;12.50;73.20;;;;;;2367321;53;21014;-66
2024/02/25 09:26:37;;;;;;;1.12;0.40;;;12.50;72.40;;;;;;2368409;53;21371;-67
2024/02/25 09:29:03;;;;;;;0.75;0.30;;;12.70;73.10;;;;;;2368586;53;20954;-67
2024/02/25 09:31:35;;;;;;;0.82;0.40;;;12.80;73.10;;;;;;2620312;52;21407;-65
2024/02/25 09:34:04;;;;;;;1.87;0.60;;;12.90;73.50;;;;;;2367631;53;20970;-68
2024/02/25 09:36:31;;;;;;;1.62;0.60;;;13.00;73.80;;;;;;2366345;53;21669;-66
2024/02/25 09:38:58;;;;;;;2.15;0.70;;;13.20;74.20;;;;;;2620386;52;20954;-66
2024/02/25 09:41:27;;;;;;;1.10;0.47;;;13.30;74.20;;;;;;2620553;52;21436;-66
2024/02/25 09:43:54;;;;;;;1.67;0.55;;;13.50;74.20;;;;;;2343483;54;21433;-67
2024/02/25 09:46:25;;;;;;;1.60;0.55;;;13.60;74.50;;;;;;2620695;52;21213;-66
2024/02/25 09:48:52;;;;;;;1.67;0.40;;;13.70;74.00;;;;;;2367817;53;21022;-67
2024/02/25 09:51:21;;;;;;;1.30;0.50;;;13.90;74.10;;;;;;2620796;52;21257;-67
2024/02/25 09:53:52;;;;;;;0.82;0.40;;;14.00;73.20;;;;;;2620122;52;20987;-67
2024/02/25 09:56:19;;;;;;;0.65;0.35;;;14.10;72.10;;;;;;2368504;53;21575;-66
2024/02/25 09:58:46;;;;;;;1.58;0.60;;;14.20;72.30;;;;;;2367810;53;21411;-68
2024/02/25 10:01:12;;;;;;;2.33;0.60;;;14.20;72.10;;;;;;2368444;53;20934;-66
2024/02/25 10:03:39;;;;;;;1.52;0.50;;;14.30;71.50;;;;;;2369213;53;21034;-65
2024/02/25 10:06:05;;;;;;;0.85;0.40;;;14.30;71.00;;;;;;2368193;53;20949;-66
2024/02/25 10:08:47;;;;;;;0.80;0.37;;;14.30;70.60;;;;;;2618266;52;20927;-68
2024/02/25 10:11:14;;;;;;;1.35;0.50;;;14.30;68.90;;;;;;2347903;53;21026;-68
2024/02/25 10:13:45;;;;;;;2.92;0.50;;;14.30;70.20;;;;;;2367933;53;21297;-67
2024/02/25 10:16:16;;;;;;;;;;;14.40;70.10;;;;;;2589766;52;21468;-66
2024/02/25 10:18:43;;;;;;;1.33;0.32;;;14.40;67.40;;;;;;2620538;52;20270;-66
2024/02/25 10:21:10;;;;;;;0.85;0.30;;;14.50;70.30;;;;;;2368490;53;20942;-67
2024/02/25 10:23:36;;;;;;;2.25;0.40;;;14.40;70.40;;;;;;2619946;52;20934;-66
2024/02/25 10:26:15;;;;;;;1.95;0.40;;;14.40;70.80;;;;;;2368092;53;20950;-67
2024/02/25 10:28:42;;;;;;;1.48;0.62;;;14.50;69.80;;;;;;2368175;53;21586;-67
2024/02/25 10:31:10;;;;;;;1.12;0.40;;;14.50;71.20;;;;;;2368047;53;21962;-67
2024/02/25 10:33:37;;;;;;;2.03;0.52;;;14.60;71.70;;;;;;2368259;53;21526;-66
2024/02/25 10:36:13;;;;;;;2.12;0.65;;;14.70;72.20;;;;;;2368473;53;21002;-66
2024/02/25 10:38:40;;;;;;;1.17;0.32;;;14.70;72.00;;;;;;2620232;52;21003;-67
2024/02/25 10:41:07;;;;;;;0.62;0.30;;;14.90;72.10;;;;;;2368968;53;21366;-67
2024/02/25 10:43:34;;;;;;;0.95;0.40;;;15.00;72.20;;;;;;2620095;52;21475;-67
2024/02/25 10:46:30;;;;;;;1.55;0.47;;;15.10;72.40;;;;;;2367770;53;21022;-68
2024/02/25 10:48:59;;;;;;;1.58;0.43;;;15.20;71.40;;;;;;2367835;53;21206;-68
2024/02/25 10:51:26;;;;;;;0.90;0.37;;;15.30;73.00;;;;;;2620369;52;21021;-66
2024/02/25 10:53:52;;;;;;;0.93;0.30;;;15.40;73.10;;;;;;2620065;52;20918;-67
2024/02/25 10:56:19;;;;;;;0.40;0.30;;;15.60;73.90;;;;;;2368637;53;20954;-67
2024/02/25 10:58:54;;;;;;;0.85;0.20;;;15.60;72.90;;;;;;2367873;53;21409;-67
2024/02/25 11:01:21;;;;;;;0.62;0.30;;;15.70;71.40;;;;;;2367183;53;20950;-67
2024/02/25 11:03:47;;;;;;;1.20;0.25;;;15.80;72.70;;;;;;2366624;53;20910;-66
2024/02/25 11:06:54;;;;;;;1.00;0.40;;;15.90;72.80;;;;;;2367483;53;20935;-67
2024/02/25 11:09:22;;;;;;;0.95;0.30;;;16.00;70.60;;;;;;2559231;53;20940;-66
2024/02/25 11:12:11;;;;;;;0.47;0.20;;;16.10;73.10;;;;;;2340232;54;21148;-67
2024/02/25 11:14:39;;;;;;;0.50;0.30;;;16.20;72.80;;;;;;2585633;53;21416;-66
2024/02/25 11:17:14;;;;;;;1.05;0.32;;;16.30;72.60;;;;;;2340203;54;20924;-68
2024/02/25 11:19:40;;;;;;;0.65;0.28;;;16.40;71.20;;;;;;2586423;53;21247;-66
2024/02/25 11:22:07;;;;;;;0.80;0.37;;;16.50;72.20;;;;;;2340282;54;21030;-67
2024/02/25 11:24:49;;;;;;;1.05;0.30;;;16.50;72.00;;;;;;2585795;53;20992;-66
2024/02/25 11:27:17;;;;;;;0.77;0.32;;;16.60;69.40;;;;;;2340178;54;20911;-67
2024/02/25 11:29:44;;;;;;;0.82;0.32;;;16.60;70.90;;;;;;2341273;53;21003;-66
2024/02/25 11:32:18;;;;;;;0.50;0.20;;;16.70;70.70;;;;;;2588716;52;21037;-67
2024/02/25 11:34:45;;;;;;;0.80;0.30;;;16.70;70.80;;;;;;2585633;53;20949;-67
2024/02/25 11:37:17;;;;;;;0.95;0.30;;;16.70;70.30;;;;;;2585874;53;21004;-68
2024/02/25 11:39:43;;;;;;;0.82;0.20;;;16.70;69.90;;;;;;2340005;54;20961;-67
2024/02/25 11:42:09;;;;;;;0.77;0.30;;;16.70;69.90;;;;;;2339778;54;20932;-66
2024/02/25 11:44:36;;;;;;;1.42;0.40;;;16.80;69.60;;;;;;2316588;54;21772;-67
2024/02/25 11:47:05;;;;;;;1.12;0.40;;;16.60;69.20;;;;;;2346118;54;21020;-68
2024/02/25 11:49:34;;;;;;;0.52;0.20;;;16.60;69.00;;;;;;2347273;54;20960;-68
2024/02/25 11:52:00;;;;;;;2.60;0.40;;;16.60;68.90;;;;;;2368271;53;21073;-67
2024/02/25 11:54:28;;;;;;;1.35;0.40;;;16.50;69.00;;;;;;2368220;53;21493;-68
2024/02/25 11:56:55;;;;;;;1.42;0.40;;;16.50;68.90;;;;;;2348492;54;21670;-66
2024/02/25 11:59:23;;;;;;;0.77;0.37;;;16.30;68.60;;;;;;2348039;54;20918;-68
2024/02/25 12:01:50;;;;;;;1.92;0.50;;;16.40;68.60;;;;;;2348593;53;22425;-66
2024/02/25 12:04:17;;;;;;;0.80;0.40;;;16.40;68.90;;;;;;2620862;52;21483;-67
2024/02/25 12:06:44;;;;;;;0.20;0.20;;;16.40;69.00;;;;;;2620737;52;20922;-68
2024/02/25 12:09:13;;;;;;;0.93;0.43;;;16.40;69.20;;;;;;2370053;53;20938;-68
2024/02/25 12:11:39;;;;;;;0.80;0.37;;;16.40;69.00;;;;;;2347000;53;21441;-68
2024/02/25 12:14:30;;;;;;;1.20;0.35;;;16.40;69.20;;;;;;2620047;52;21412;-66
2024/02/25 12:16:56;;;;;;;1.48;0.30;;;16.40;69.20;;;;;;2317454;54;21031;-66
2024/02/25 12:19:24;;;;;;;1.37;0.45;;;16.40;69.40;;;;;;2340297;53;20932;-66
2024/02/25 12:21:51;;;;;;;0.95;0.35;;;16.30;68.80;;;;;;2342645;53;20974;-67
2024/02/25 12:24:20;;;;;;;1.62;0.50;;;16.30;69.00;;;;;;2344531;53;20952;-68
2024/02/25 12:26:57;;;;;;;1.67;0.60;;;16.30;68.60;;;;;;2339218;53;21028;-67
2024/02/25 12:29:27;;;;;;;1.25;0.50;;;16.30;67.70;;;;;;2586282;53;21010;-67
2024/02/25 12:31:56;;;;;;;1.23;0.40;;;16.30;68.40;;;;;;2325186;53;20905;-68
2024/02/25 12:34:25;;;;;;;1.02;0.35;;;16.30;69.20;;;;;;2331618;54;20878;-66
2024/02/25 12:36:54;;;;;;;0.95;0.40;;;16.30;68.50;;;;;;2584764;53;20960;-67
2024/02/25 12:39:22;;;;;;;1.17;0.50;;;16.40;69.20;;;;;;2339144;54;20965;-70
2024/02/25 12:42:01;;;;;;;0.98;0.40;;;16.40;69.00;;;;;;2584752;53;21060;-71
2024/02/25 12:44:28;;;;;;;1.85;0.37;;;16.40;67.10;;;;;;2586432;53;20910;-71
2024/02/25 12:46:57;;;;;;;1.67;0.40;;;16.40;69.00;;;;;;2340241;53;21017;-71
2024/02/25 12:49:27;;;;;;;0.70;0.30;;;16.50;69.20;;;;;;2340758;53;21487;-72